createdAt,value
2022-08-30T00:00:04.117Z,99.90
2022-08-30T00:02:32.896Z,99.90
2022-08-30T00:05:02.368Z,99.90
2022-08-30T00:07:31.010Z,99.90
2022-08-30T00:10:00.924Z,99.90
2022-08-30T00:12:32.663Z,99.90
2022-08-30T00:15:01.514Z,99.90
2022-08-30T00:17:30.133Z,99.90
2022-08-30T00:19:59.137Z,99.90
2022-08-30T00:22:27.777Z,99.90
2022-08-30T00:24:56.562Z,99.90
2022-08-30T00:27:25.334Z,99.90
2022-08-30T00:29:55.820Z,99.90
2022-08-30T00:32:24.994Z,99.90
2022-08-30T00:34:55.633Z,99.90
2022-08-30T00:37:24.460Z,99.90
2022-08-30T00:39:53.145Z,99.90
2022-08-30T00:42:22.521Z,99.90
2022-08-30T00:44:52.018Z,99.90
2022-08-30T00:47:22.064Z,99.90
2022-08-30T00:49:56.274Z,99.90
2022-08-30T00:52:25.769Z,99.90
2022-08-30T00:54:54.884Z,99.90
2022-08-30T00:57:23.570Z,99.90
2022-08-30T00:59:52.384Z,99.90
2022-08-30T01:02:24.623Z,99.90
2022-08-30T01:04:55.470Z,99.90
2022-08-30T01:07:24.066Z,99.90
2022-08-30T01:09:52.739Z,99.90
2022-08-30T01:12:21.477Z,99.90
2022-08-30T01:14:50.463Z,99.90
2022-08-30T01:17:23.329Z,99.90
2022-08-30T01:19:57.860Z,99.90
2022-08-30T01:22:34.347Z,99.90
2022-08-30T01:25:08.088Z,99.90
2022-08-30T01:27:40.693Z,99.90
2022-08-30T01:30:10.280Z,99.90
2022-08-30T01:32:41.609Z,99.90
2022-08-30T01:35:11.828Z,99.90
2022-08-30T01:37:41.057Z,99.90
2022-08-30T01:40:12.246Z,99.90
2022-08-30T01:42:40.894Z,99.90
2022-08-30T01:45:10.702Z,99.90
2022-08-30T01:47:39.617Z,99.90
2022-08-30T01:50:09.498Z,99.90
2022-08-30T01:52:38.431Z,99.90
2022-08-30T01:55:08.240Z,99.90
2022-08-30T01:57:38.339Z,99.90
2022-08-30T02:00:09.893Z,99.90
2022-08-30T02:02:38.563Z,99.90
2022-08-30T02:05:08.343Z,99.90
2022-08-30T02:07:37.000Z,99.90
2022-08-30T02:10:06.664Z,99.90
2022-08-30T02:12:35.494Z,99.90
2022-08-30T02:15:06.517Z,99.90
2022-08-30T02:17:35.071Z,99.90
2022-08-30T02:20:04.508Z,99.90
2022-08-30T02:22:33.270Z,99.90
2022-08-30T02:25:02.066Z,99.90
2022-08-30T02:27:30.714Z,99.90
2022-08-30T02:29:59.365Z,99.90
2022-08-30T02:32:29.385Z,99.90
2022-08-30T02:34:58.003Z,99.90
2022-08-30T02:37:26.676Z,99.90
2022-08-30T02:39:55.334Z,99.90
2022-08-30T02:42:24.026Z,99.90
2022-08-30T02:44:52.635Z,99.90
2022-08-30T02:47:21.270Z,99.90
2022-08-30T02:49:51.197Z,99.90
2022-08-30T02:52:22.624Z,99.90
2022-08-30T02:54:56.502Z,99.90
2022-08-30T02:57:25.062Z,99.90
2022-08-30T02:59:53.861Z,99.90
2022-08-30T03:02:23.200Z,99.90
2022-08-30T03:04:53.328Z,99.90
2022-08-30T03:07:22.000Z,99.90
2022-08-30T03:09:50.847Z,99.90
2022-08-30T03:12:19.906Z,99.90
2022-08-30T03:14:48.537Z,99.90
2022-08-30T03:17:17.928Z,99.90
2022-08-30T03:19:46.641Z,99.90
2022-08-30T03:22:16.609Z,99.90
2022-08-30T03:24:45.997Z,99.90
2022-08-30T03:27:14.972Z,99.90
2022-08-30T03:29:43.562Z,99.90
2022-08-30T03:32:12.137Z,99.90
2022-08-30T03:34:40.839Z,99.90
2022-08-30T03:37:11.943Z,99.90
2022-08-30T03:39:41.981Z,99.90
2022-08-30T03:42:11.341Z,99.90
2022-08-30T03:44:40.185Z,99.90
2022-08-30T03:47:09.228Z,99.90
2022-08-30T03:49:37.814Z,99.90
2022-08-30T03:52:06.767Z,99.90
2022-08-30T03:54:35.405Z,99.90
2022-08-30T03:57:07.389Z,99.90
2022-08-30T03:59:36.011Z,99.90
2022-08-30T04:02:05.193Z,99.90
2022-08-30T04:04:34.320Z,99.90
2022-08-30T04:07:03.093Z,99.90
2022-08-30T04:09:32.029Z,99.90
2022-08-30T04:12:00.960Z,99.90
2022-08-30T04:14:30.985Z,99.90
2022-08-30T04:16:59.623Z,99.90
2022-08-30T04:19:28.160Z,99.90
2022-08-30T04:21:57.379Z,99.90
2022-08-30T04:24:26.503Z,99.90
2022-08-30T04:26:55.287Z,99.90
2022-08-30T04:29:23.910Z,99.90
2022-08-30T04:31:53.898Z,99.90
2022-08-30T04:34:22.605Z,99.90
2022-08-30T04:36:51.259Z,99.90
2022-08-30T04:39:20.365Z,99.90
2022-08-30T04:41:48.963Z,99.90
2022-08-30T04:44:19.668Z,99.90
2022-08-30T04:46:48.523Z,99.90
2022-08-30T04:49:18.489Z,99.90
2022-08-30T04:51:47.141Z,99.90
2022-08-30T04:54:15.776Z,99.90
2022-08-30T04:56:44.886Z,99.90
2022-08-30T04:59:14.100Z,99.90
2022-08-30T05:01:44.810Z,99.90
2022-08-30T05:04:14.890Z,99.90
2022-08-30T05:06:45.343Z,99.90
2022-08-30T05:09:14.057Z,99.90
2022-08-30T05:11:43.519Z,99.90
2022-08-30T05:14:12.388Z,99.90
2022-08-30T05:16:41.620Z,99.90
2022-08-30T05:19:10.365Z,99.90
2022-08-30T05:21:40.689Z,99.90
2022-08-30T05:24:11.356Z,99.90
2022-08-30T05:26:40.735Z,99.90
2022-08-30T05:29:09.403Z,99.90
2022-08-30T05:31:38.135Z,99.90
2022-08-30T05:34:07.146Z,99.90
2022-08-30T05:36:37.915Z,99.90
2022-08-30T05:39:07.871Z,99.90
2022-08-30T05:41:39.653Z,99.90
2022-08-30T05:44:10.578Z,99.90
2022-08-30T05:46:43.196Z,99.90
2022-08-30T05:49:11.779Z,99.90
2022-08-30T05:51:43.334Z,99.90
2022-08-30T05:54:13.657Z,99.90
2022-08-30T05:56:46.318Z,99.90
2022-08-30T05:59:16.757Z,99.90
2022-08-30T06:01:47.538Z,99.90
2022-08-30T06:04:16.653Z,99.90
2022-08-30T06:06:45.621Z,99.90
2022-08-30T06:09:15.915Z,99.90
2022-08-30T06:11:46.624Z,99.90
2022-08-30T06:14:15.830Z,99.90
2022-08-30T06:16:45.868Z,99.90
2022-08-30T06:19:16.292Z,99.90
2022-08-30T06:21:48.198Z,99.90
2022-08-30T06:24:17.605Z,99.90
2022-08-30T06:26:49.118Z,99.90
2022-08-30T06:29:21.930Z,99.90
2022-08-30T06:31:51.048Z,99.90
2022-08-30T06:34:19.876Z,99.90
2022-08-30T06:36:48.690Z,99.90
2022-08-30T06:39:17.223Z,99.90
2022-08-30T06:41:47.449Z,99.90
2022-08-30T06:44:16.560Z,99.90
2022-08-30T06:46:45.179Z,99.90
2022-08-30T06:49:13.836Z,99.90
2022-08-30T06:51:42.501Z,99.90
2022-08-30T06:54:12.868Z,99.90
2022-08-30T06:56:57.601Z,99.90
2022-08-30T06:59:28.896Z,99.90
2022-08-30T07:01:57.971Z,99.90
2022-08-30T07:04:27.187Z,99.90
2022-08-30T07:06:55.952Z,99.90
2022-08-30T07:09:24.818Z,99.90
2022-08-30T07:11:54.801Z,99.90
2022-08-30T07:14:23.907Z,99.90
2022-08-30T07:16:53.864Z,99.90
2022-08-30T07:19:22.798Z,99.90
2022-08-30T07:21:51.480Z,99.90
2022-08-30T07:24:21.455Z,99.90
2022-08-30T07:26:52.177Z,99.90
2022-08-30T07:29:22.311Z,99.90
2022-08-30T07:31:50.917Z,99.90
2022-08-30T07:34:23.387Z,99.90
2022-08-30T07:36:54.628Z,99.90
2022-08-30T07:39:23.283Z,99.90
2022-08-30T07:41:51.953Z,99.90
2022-08-30T07:44:22.805Z,99.90
2022-08-30T07:46:53.925Z,99.90
2022-08-30T07:49:23.892Z,99.90
2022-08-30T07:51:52.489Z,99.90
2022-08-30T07:54:21.174Z,99.90
2022-08-30T07:56:49.956Z,99.90
2022-08-30T07:59:18.502Z,99.90
2022-08-30T08:01:47.077Z,99.90
2022-08-30T08:04:15.901Z,99.90
2022-08-30T08:06:45.812Z,99.90
2022-08-30T08:09:14.397Z,99.90
2022-08-30T08:11:43.017Z,99.90
2022-08-30T08:14:11.787Z,99.90
2022-08-30T08:16:42.516Z,99.90
2022-08-30T08:19:12.313Z,99.90
2022-08-30T08:21:40.928Z,99.90
2022-08-30T08:24:10.982Z,99.90
2022-08-30T08:26:45.278Z,99.90
2022-08-30T08:29:14.403Z,99.90
2022-08-30T08:31:43.563Z,99.90
2022-08-30T08:34:12.670Z,99.90
2022-08-30T08:36:41.715Z,99.90
2022-08-30T08:39:11.924Z,99.90
2022-08-30T08:41:54.784Z,99.90
2022-08-30T08:44:42.373Z,99.90
2022-08-30T08:47:16.156Z,99.90
2022-08-30T08:49:48.350Z,99.90
2022-08-30T08:52:48.283Z,99.90
2022-08-30T08:55:22.223Z,99.90
2022-08-30T08:57:52.463Z,99.90
2022-08-30T09:00:21.272Z,99.90
2022-08-30T09:02:58.171Z,99.90
2022-08-30T09:05:30.883Z,99.90
2022-08-30T09:08:08.999Z,99.90
2022-08-30T09:10:50.395Z,99.90
2022-08-30T09:13:21.022Z,99.90
2022-08-30T09:15:54.743Z,99.90
2022-08-30T09:18:45.516Z,99.90
2022-08-30T09:21:15.549Z,99.90
2022-08-30T09:23:50.426Z,99.90
2022-08-30T09:26:30.758Z,99.90
2022-08-30T09:29:01.074Z,99.90
2022-08-30T09:31:32.653Z,99.90
2022-08-30T09:34:05.340Z,99.90
2022-08-30T09:36:40.990Z,99.90
2022-08-30T09:39:18.191Z,99.90
2022-08-30T09:41:50.661Z,99.90
2022-08-30T09:44:22.518Z,99.90
2022-08-30T09:46:54.609Z,99.90
2022-08-30T09:49:34.435Z,99.90
2022-08-30T09:52:35.777Z,99.90
2022-08-30T09:55:20.032Z,99.90
2022-08-30T09:58:00.906Z,99.90
2022-08-30T10:00:32.580Z,99.90
2022-08-30T10:03:35.776Z,99.90
2022-08-30T10:06:23.731Z,99.90
2022-08-30T10:09:01.988Z,99.90
2022-08-30T10:11:36.880Z,99.90
2022-08-30T10:14:32.144Z,99.90
2022-08-30T10:17:08.190Z,99.90
2022-08-30T10:19:53.087Z,99.90
2022-08-30T10:22:29.855Z,99.90
2022-08-30T10:25:07.913Z,99.90
2022-08-30T10:27:42.693Z,99.90
2022-08-30T10:30:15.207Z,99.10
2022-08-30T10:32:51.895Z,98.60
2022-08-30T10:35:23.832Z,98.50
2022-08-30T10:37:57.261Z,98.40
2022-08-30T10:40:48.610Z,97.00
2022-08-30T10:43:26.021Z,96.20
2022-08-30T10:46:03.450Z,96.00
2022-08-30T10:48:38.077Z,94.90
2022-08-30T10:51:11.876Z,95.20
2022-08-30T10:53:44.289Z,92.50
2022-08-30T10:56:18.641Z,93.20
2022-08-30T10:58:47.546Z,93.40
2022-08-30T11:01:46.868Z,93.00
2022-08-30T11:04:47.021Z,92.80
2022-08-30T11:07:28.793Z,91.90
2022-08-30T11:10:20.813Z,92.20
2022-08-30T11:12:57.310Z,91.90
2022-08-30T11:15:30.178Z,91.20
2022-08-30T11:18:04.052Z,90.80
2022-08-30T11:20:37.903Z,90.80
2022-08-30T11:23:22.591Z,90.40
2022-08-30T11:25:57.655Z,89.60
2022-08-30T11:29:01.712Z,88.20
2022-08-30T11:31:42.532Z,81.50
2022-08-30T11:34:35.840Z,84.70
2022-08-30T11:39:58.257Z,85.60
2022-08-30T11:42:42.732Z,84.20
2022-08-30T11:45:44.522Z,83.10
2022-08-30T11:48:54.168Z,84.10
2022-08-30T11:52:26.674Z,83.00
2022-08-30T11:55:17.792Z,81.50
2022-08-30T11:57:53.851Z,82.60
2022-08-30T12:00:35.121Z,81.80
2022-08-30T12:03:06.459Z,80.90
2022-08-30T12:06:03.021Z,80.10
2022-08-30T12:09:02.107Z,77.40
2022-08-30T12:11:59.582Z,78.70
2022-08-30T12:14:48.711Z,78.40
2022-08-30T12:18:04.188Z,79.40
2022-08-30T12:20:41.677Z,79.30
2022-08-30T12:23:21.422Z,77.70
2022-08-30T12:25:50.394Z,76.90
2022-08-30T12:28:25.980Z,76.70
2022-08-30T12:30:55.095Z,76.70
2022-08-30T12:33:40.150Z,75.60
2022-08-30T12:36:14.013Z,77.10
2022-08-30T12:38:43.505Z,75.80
2022-08-30T12:41:21.186Z,75.30
2022-08-30T12:43:53.363Z,75.10
2022-08-30T12:46:23.536Z,74.40
2022-08-30T12:48:52.675Z,73.90
2022-08-30T12:51:32.442Z,73.40
2022-08-30T12:54:15.830Z,72.40
2022-08-30T12:56:50.985Z,71.90
2022-08-30T13:00:01.608Z,71.90
2022-08-30T13:02:45.400Z,68.40
2022-08-30T13:05:44.415Z,70.30
2022-08-30T13:08:18.570Z,70.20
2022-08-30T13:10:57.243Z,70.30
2022-08-30T13:13:37.521Z,69.60
2022-08-30T13:16:29.532Z,69.70
2022-08-30T13:19:20.893Z,68.10
2022-08-30T13:21:53.129Z,69.30
2022-08-30T13:24:25.332Z,68.80
2022-08-30T13:26:56.684Z,68.50
2022-08-30T13:29:27.959Z,68.00
2022-08-30T13:31:57.759Z,67.80
2022-08-30T13:34:27.954Z,67.20
2022-08-30T13:36:58.978Z,66.40
2022-08-30T13:39:28.059Z,66.00
2022-08-30T13:42:31.613Z,65.50
2022-08-30T13:44:47.793Z,65.40
2022-08-30T13:47:34.775Z,65.70
2022-08-30T13:50:06.411Z,65.10
2022-08-30T13:52:35.235Z,64.80
2022-08-30T13:55:03.845Z,64.80
2022-08-30T14:00:22.415Z,63.60
2022-08-30T14:02:54.855Z,63.70
2022-08-30T14:11:11.403Z,63.40
2022-08-30T14:14:14.770Z,63.60
2022-08-30T14:16:31.397Z,62.50
2022-08-30T14:19:01.501Z,62.50
2022-08-30T14:21:31.778Z,62.10
2022-08-30T14:24:00.698Z,61.80
2022-08-30T14:26:33.159Z,61.50
2022-08-30T14:29:03.484Z,61.20
2022-08-30T14:31:32.874Z,61.50
2022-08-30T14:34:03.363Z,61.30
2022-08-30T14:36:35.231Z,61.10
2022-08-30T14:39:08.361Z,61.00
2022-08-30T14:41:43.935Z,60.60
2022-08-30T14:44:13.946Z,60.70
2022-08-30T14:46:43.219Z,61.10
2022-08-30T14:49:13.276Z,61.10
2022-08-30T14:51:43.645Z,61.20
2022-08-30T14:54:12.308Z,61.50
2022-08-30T14:56:41.702Z,61.50
2022-08-30T14:59:13.227Z,61.50
2022-08-30T15:01:43.049Z,61.10
2022-08-30T15:04:12.937Z,62.00
2022-08-30T15:06:45.172Z,61.30
2022-08-30T15:09:16.062Z,61.20
2022-08-30T15:11:44.661Z,61.50
2022-08-30T15:14:16.398Z,61.20
2022-08-30T15:16:45.978Z,61.20
2022-08-30T15:19:14.968Z,61.50
2022-08-30T15:21:47.683Z,61.40
2022-08-30T15:24:29.454Z,61.60
2022-08-30T15:26:59.823Z,61.90
2022-08-30T15:29:30.604Z,61.80
2022-08-30T15:32:01.715Z,62.10
2022-08-30T15:34:31.860Z,62.10
2022-08-30T15:37:02.188Z,62.00
2022-08-30T15:39:32.188Z,61.90
2022-08-30T15:42:01.790Z,62.00
2022-08-30T15:44:31.364Z,62.20
2022-08-30T15:47:00.606Z,62.20
2022-08-30T15:49:29.876Z,62.20
2022-08-30T15:52:03.568Z,62.40
2022-08-30T15:54:32.835Z,62.40
2022-08-30T15:57:02.310Z,62.00
2022-08-30T15:59:34.666Z,62.00
2022-08-30T16:02:03.434Z,63.10
2022-08-30T16:04:32.331Z,62.90
2022-08-30T16:07:02.538Z,63.50
2022-08-30T16:09:32.954Z,63.90
2022-08-30T16:12:02.389Z,63.90
2022-08-30T16:14:33.692Z,64.00
2022-08-30T16:17:02.913Z,63.90
2022-08-30T16:19:31.764Z,64.00
2022-08-30T16:22:00.399Z,64.10
2022-08-30T16:24:30.525Z,64.00
2022-08-30T16:26:59.129Z,64.30
2022-08-30T16:29:27.840Z,64.40
2022-08-30T16:31:58.129Z,64.70
2022-08-30T16:34:26.898Z,65.10
2022-08-30T16:36:55.658Z,65.60
2022-08-30T16:39:25.009Z,65.70
2022-08-30T16:41:55.038Z,65.70
2022-08-30T16:44:23.662Z,65.90
2022-08-30T16:46:58.798Z,65.90
2022-08-30T16:49:27.550Z,66.20
2022-08-30T16:51:56.515Z,66.40
2022-08-30T16:54:25.504Z,66.60
2022-08-30T16:56:58.291Z,66.60
2022-08-30T16:59:27.122Z,66.70
2022-08-30T17:01:56.066Z,67.00
2022-08-30T17:04:24.792Z,67.30
2022-08-30T17:06:53.973Z,67.30
2022-08-30T17:09:22.720Z,67.70
2022-08-30T17:11:52.849Z,68.20
2022-08-30T17:14:27.829Z,68.70
2022-08-30T17:16:58.085Z,69.20
2022-08-30T17:19:28.908Z,69.50
2022-08-30T17:21:58.606Z,70.00
2022-08-30T17:24:28.224Z,70.30
2022-08-30T17:26:58.181Z,70.80
2022-08-30T17:29:28.604Z,71.20
2022-08-30T17:31:57.707Z,71.40
2022-08-30T17:34:28.067Z,71.80
2022-08-30T17:36:59.778Z,72.20
2022-08-30T17:39:29.753Z,72.60
2022-08-30T17:41:58.556Z,73.00
2022-08-30T17:44:29.745Z,73.20
2022-08-30T17:46:59.635Z,73.70
2022-08-30T17:49:29.646Z,74.00
2022-08-30T17:51:58.448Z,74.50
2022-08-30T17:54:28.010Z,74.90
2022-08-30T17:56:57.244Z,75.30
2022-08-30T17:59:29.302Z,75.60
2022-08-30T18:02:02.392Z,76.70
2022-08-30T18:04:31.395Z,76.40
2022-08-30T18:07:00.380Z,76.80
2022-08-30T18:09:33.932Z,77.30
2022-08-30T18:12:17.658Z,77.60
2022-08-30T18:14:52.984Z,78.10
2022-08-30T18:17:22.906Z,78.40
2022-08-30T18:19:51.985Z,78.70
2022-08-30T18:22:20.623Z,79.10
2022-08-30T18:24:49.317Z,79.40
2022-08-30T18:27:18.207Z,79.80
2022-08-30T18:29:48.369Z,80.20
2022-08-30T18:32:17.025Z,80.60
2022-08-30T18:34:46.162Z,80.90
2022-08-30T18:37:14.945Z,81.70
2022-08-30T18:39:45.573Z,81.90
2022-08-30T18:42:16.073Z,82.20
2022-08-30T18:44:44.841Z,82.70
2022-08-30T18:47:14.821Z,83.40
2022-08-30T18:49:43.719Z,83.80
2022-08-30T18:52:12.862Z,83.90
2022-08-30T18:54:44.177Z,84.10
2022-08-30T18:57:15.280Z,84.50
2022-08-30T18:59:44.226Z,85.00
2022-08-30T19:02:17.522Z,85.50
2022-08-30T19:04:47.832Z,86.30
2022-08-30T19:07:18.882Z,86.50
2022-08-30T19:09:48.863Z,87.00
2022-08-30T19:12:17.602Z,87.60
2022-08-30T19:14:46.488Z,87.90
2022-08-30T19:17:16.666Z,88.60
2022-08-30T19:19:47.937Z,89.00
2022-08-30T19:22:19.145Z,89.60
2022-08-30T19:24:49.859Z,90.10
2022-08-30T19:27:21.364Z,90.30
2022-08-30T19:29:53.113Z,90.60
2022-08-30T19:32:24.297Z,90.90
2022-08-30T19:34:53.267Z,91.10
2022-08-30T19:37:22.112Z,91.50
2022-08-30T19:39:50.731Z,92.00
2022-08-30T19:42:20.618Z,92.20
2022-08-30T19:44:51.816Z,92.80
2022-08-30T19:47:20.836Z,93.20
2022-08-30T19:49:50.927Z,93.50
2022-08-30T19:52:20.447Z,94.20
2022-08-30T19:54:49.186Z,94.20
2022-08-30T19:57:17.986Z,94.60
2022-08-30T19:59:46.671Z,95.20
2022-08-30T20:02:15.899Z,95.60
2022-08-30T20:04:44.514Z,96.20
2022-08-30T20:07:14.683Z,97.20
2022-08-30T20:09:43.253Z,97.50
2022-08-30T20:12:12.020Z,98.30
2022-08-30T20:14:42.557Z,99.10
2022-08-30T20:17:12.096Z,99.80
2022-08-30T20:19:40.847Z,99.90
2022-08-30T20:22:09.934Z,99.90
2022-08-30T20:24:41.331Z,99.90
2022-08-30T20:27:12.932Z,99.90
2022-08-30T20:29:41.945Z,99.90
2022-08-30T20:32:10.560Z,99.90
2022-08-30T20:34:39.672Z,99.90
2022-08-30T20:37:10.024Z,99.90
2022-08-30T20:39:40.072Z,99.90
2022-08-30T20:42:08.710Z,99.90
2022-08-30T20:44:38.344Z,99.90
2022-08-30T20:47:07.419Z,99.90
2022-08-30T20:49:36.597Z,99.90
2022-08-30T20:52:06.266Z,99.90
2022-08-30T20:54:39.832Z,99.90
2022-08-30T20:57:08.609Z,99.90
2022-08-30T20:59:37.583Z,99.90
2022-08-30T21:02:06.557Z,99.90
2022-08-30T21:04:35.295Z,99.90
2022-08-30T21:07:03.943Z,99.90
2022-08-30T21:09:32.558Z,99.90
2022-08-30T21:12:02.494Z,99.90
2022-08-30T21:14:31.073Z,99.90
2022-08-30T21:16:59.714Z,99.90
2022-08-30T21:19:28.453Z,99.90
2022-08-30T21:21:57.127Z,99.90
2022-08-30T21:24:25.833Z,99.90
2022-08-30T21:26:55.774Z,99.90
2022-08-30T21:29:25.883Z,99.90
2022-08-30T21:31:54.654Z,99.90
2022-08-30T21:34:23.555Z,99.90
2022-08-30T21:36:51.290Z,99.90
2022-08-30T21:39:23.444Z,99.90
2022-08-30T21:41:55.597Z,99.90
2022-08-30T21:44:27.591Z,99.90
2022-08-30T21:46:56.510Z,99.90
2022-08-30T21:49:25.849Z,99.90
2022-08-30T21:51:56.625Z,99.90
2022-08-30T21:54:28.423Z,99.90
2022-08-30T21:57:01.690Z,99.90
2022-08-30T21:59:31.769Z,99.90
2022-08-30T22:02:01.296Z,99.90
2022-08-30T22:04:30.216Z,99.90
2022-08-30T22:07:00.248Z,99.90
2022-08-30T22:09:28.820Z,99.90
2022-08-30T22:11:57.435Z,99.90
2022-08-30T22:14:27.087Z,99.90
2022-08-30T22:16:57.159Z,99.90
2022-08-30T22:19:26.243Z,99.90
2022-08-30T22:22:01.082Z,99.90
2022-08-30T22:24:32.589Z,99.90
2022-08-30T22:27:02.981Z,99.90
2022-08-30T22:29:31.784Z,99.90
2022-08-30T22:32:02.228Z,99.90
2022-08-30T22:34:32.294Z,99.90
2022-08-30T22:37:01.313Z,99.90
2022-08-30T22:39:29.993Z,99.90
2022-08-30T22:41:58.629Z,99.90
2022-08-30T22:44:27.231Z,99.90
2022-08-30T22:46:56.187Z,99.90
2022-08-30T22:49:26.203Z,99.90
2022-08-30T22:51:54.773Z,99.90
2022-08-30T22:54:23.547Z,99.90
2022-08-30T22:56:52.129Z,99.90
2022-08-30T22:59:20.695Z,99.90
2022-08-30T23:01:55.988Z,99.90
2022-08-30T23:04:26.199Z,99.90
2022-08-30T23:06:54.865Z,99.90
2022-08-30T23:09:23.534Z,99.90
2022-08-30T23:11:52.152Z,99.90
2022-08-30T23:14:20.721Z,99.90
2022-08-30T23:16:49.439Z,99.90
2022-08-30T23:19:18.131Z,99.90
2022-08-30T23:21:48.135Z,99.90
2022-08-30T23:24:34.272Z,99.90
2022-08-30T23:27:20.551Z,99.90
2022-08-30T23:30:06.708Z,99.90
2022-08-30T23:32:52.887Z,99.90
2022-08-30T23:35:39.299Z,99.90
2022-08-30T23:38:26.693Z,99.90
2022-08-30T23:41:12.690Z,99.90
2022-08-30T23:43:59.885Z,99.90
2022-08-30T23:46:45.976Z,99.90
2022-08-30T23:49:32.094Z,99.90
2022-08-30T23:52:18.204Z,99.90
2022-08-30T23:55:05.414Z,99.90
2022-08-30T23:57:51.309Z,99.90
